Time;durP1;ratioP1;P1;durP2;ratioP2;P2;SDS_P1;SDS_P2;PMS_P1;PMS_P2;Temp;Humidity;BMP_temperature;BMP_pressure;BME280_temperature;BME280_humidity;BME280_pressure;Samples;Min_cycle;Max_cycle;Signal;HPM_P1;HPM_P2
2022/01/23 00:02:19;;;;;;;56.53;23.33;;;;;;;1.53;100.00;99984.44;4840944;29;20041;-59
2022/01/23 00:04:45;;;;;;;48.30;20.50;;;;;;;1.53;100.00;99987.91;4840740;29;20276;-59
2022/01/23 00:07:13;;;;;;;50.53;21.10;;;;;;;1.52;100.00;99988.03;4840593;29;20286;-59
2022/01/23 00:09:39;;;;;;;51.63;21.00;;;;;;;1.50;100.00;99990.78;4840675;29;20109;-59
2022/01/23 00:12:11;;;;;;;44.00;18.93;;;;;;;1.53;100.00;99987.09;4840658;29;20289;-60
2022/01/23 00:17:24;;;;;;;49.00;19.93;;;;;;;1.56;100.00;99992.13;4842753;29;20341;-59
2022/01/23 00:20:00;;;;;;;44.07;17.80;;;;;;;1.63;100.00;99996.78;4844459;29;20277;-59
2022/01/23 00:22:37;;;;;;;39.80;17.57;;;;;;;1.71;100.00;99994.41;4844400;29;20293;-60
2022/01/23 00:30:34;;;;;;;39.17;18.37;;;;;;;1.72;100.00;99990.00;4844160;29;20334;-60
2022/01/23 00:33:03;;;;;;;40.90;17.97;;;;;;;1.71;100.00;99998.84;4843146;29;20305;-59
2022/01/23 00:35:30;;;;;;;37.70;16.83;;;;;;;1.69;100.00;100000.75;4844125;29;20728;-59
2022/01/23 00:37:56;;;;;;;37.87;17.60;;;;;;;1.72;100.00;100001.38;4844002;29;20333;-59
2022/01/23 00:40:23;;;;;;;37.03;17.70;;;;;;;1.78;100.00;100005.31;4844030;29;20300;-59
2022/01/23 00:42:49;;;;;;;39.03;17.83;;;;;;;1.73;100.00;100002.22;4843908;29;20277;-59
2022/01/23 00:47:41;;;;;;;36.93;17.40;;;;;;;1.72;100.00;100000.53;4844113;29;20034;-59
2022/01/23 00:50:07;;;;;;;33.83;16.17;;;;;;;1.73;100.00;99996.94;4842740;29;20303;-59
2022/01/23 00:52:33;;;;;;;35.13;16.80;;;;;;;1.71;100.00;99991.78;4844141;29;20481;-59
2022/01/23 00:55:00;;;;;;;35.13;15.97;;;;;;;1.72;100.00;99996.09;4843730;29;20300;-59
2022/01/23 00:57:27;;;;;;;33.83;16.13;;;;;;;1.70;100.00;100000.66;4843631;29;20051;-59
2022/01/23 00:59:52;;;;;;;36.20;16.53;;;;;;;1.66;100.00;99987.81;4843666;29;20278;-59
2022/01/23 01:02:18;;;;;;;36.33;16.87;;;;;;;1.69;100.00;99995.50;4843618;29;20283;-59
2022/01/23 01:04:43;;;;;;;33.93;16.10;;;;;;;1.68;100.00;99997.28;4843830;29;20038;-59
2022/01/23 01:07:09;;;;;;;38.67;17.87;;;;;;;1.68;100.00;99996.44;4843508;29;20042;-59
2022/01/23 01:09:34;;;;;;;39.00;17.33;;;;;;;1.66;100.00;100001.81;4843562;29;20030;-60
2022/01/23 01:12:04;;;;;;;38.93;17.13;;;;;;;1.69;100.00;100009.50;4843296;29;20470;-59
2022/01/23 01:17:23;;;;;;;43.53;18.33;;;;;;;1.74;100.00;99998.59;4843392;29;20365;-58
2022/01/23 01:33:39;;;;;;;41.07;17.63;;;;;;;1.94;100.00;100003.16;4843307;29;20349;-59
2022/01/23 01:39:05;;;;;;;39.67;17.03;;;;;;;2.03;100.00;100009.50;4786282;29;20773;-59
2022/01/23 01:41:33;;;;;;;37.90;16.20;;;;;;;2.05;100.00;99997.88;4786440;30;20305;-59
2022/01/23 01:43:59;;;;;;;36.97;16.57;;;;;;;2.13;100.00;100003.38;4786354;30;20311;-59
2022/01/23 01:46:26;;;;;;;37.57;17.40;;;;;;;2.14;100.00;100004.22;4786347;30;20287;-59
2022/01/23 01:48:52;;;;;;;35.77;16.17;;;;;;;2.11;100.00;99999.19;4786210;29;20054;-60
2022/01/23 01:51:18;;;;;;;34.17;16.60;;;;;;;2.03;100.00;100007.69;4786207;30;20774;-59
2022/01/23 01:53:50;;;;;;;35.13;16.50;;;;;;;2.05;100.00;100013.69;4786126;30;20115;-59
2022/01/23 01:56:16;;;;;;;35.63;16.63;;;;;;;2.18;100.00;100006.50;4786056;30;20371;-59
2022/01/23 02:09:31;;;;;;;35.73;15.93;;;;;;;2.30;100.00;100001.19;4785958;30;20348;-59
2022/01/23 02:55:27;;;;;;;54.47;20.27;;;;;;;2.24;100.00;100004.31;4841906;29;20044;-59
2022/01/23 02:57:57;;;;;;;48.23;20.47;;;;;;;2.18;100.00;100009.13;4841670;29;21058;-59
2022/01/23 03:00:26;;;;;;;50.37;20.20;;;;;;;2.24;100.00;99996.41;4841651;29;20329;-59
2022/01/23 03:02:55;;;;;;;50.20;20.10;;;;;;;2.28;100.00;100001.31;4840204;29;20285;-58
2022/01/23 03:05:40;;;;;;;54.97;20.40;;;;;;;2.25;100.00;100004.19;4841724;29;20265;-59
2022/01/23 03:08:24;;;;;;;51.90;21.07;;;;;;;2.16;100.00;100002.28;4840191;29;20352;-59
2022/01/23 03:11:03;;;;;;;50.08;19.50;;;;;;;2.18;100.00;99997.75;4841456;29;20313;-59
2022/01/23 03:24:07;;;;;;;52.33;21.27;;;;;;;2.23;100.00;100005.28;4841339;29;20265;-60
2022/01/23 03:27:47;;;;;;;58.03;21.53;;;;;;;2.26;100.00;100011.16;4841128;29;20101;-59
2022/01/23 03:30:22;;;;;;;57.43;21.87;;;;;;;2.27;100.00;100017.25;4840242;29;20112;-59
2022/01/23 03:32:50;;;;;;;50.90;21.37;;;;;;;2.25;100.00;100014.75;4841585;29;20740;-59
2022/01/23 03:35:17;;;;;;;53.40;21.43;;;;;;;2.24;100.00;100010.44;4841235;29;20282;-59
2022/01/23 03:37:43;;;;;;;55.83;22.40;;;;;;;2.29;100.00;100017.97;4841397;29;20295;-59
2022/01/23 03:40:10;;;;;;;55.07;22.50;;;;;;;2.28;100.00;100005.75;4841268;29;20285;-59
2022/01/23 03:42:39;;;;;;;52.10;20.67;;;;;;;2.31;100.00;99995.78;4841236;29;20297;-59
2022/01/23 03:45:43;;;;;;;59.93;22.10;;;;;;;2.35;100.00;99999.03;4841199;29;20752;-59
2022/01/23 03:50:38;;;;;;;59.23;21.80;;;;;;;2.31;100.00;100006.31;4841057;29;20832;-59
2022/01/23 03:53:04;;;;;;;55.87;22.93;;;;;;;2.29;100.00;100000.38;4840700;29;20356;-59
2022/01/23 03:55:33;;;;;;;52.80;22.70;;;;;;;2.28;100.00;100003.13;4840973;29;20049;-59
2022/01/23 03:57:59;;;;;;;56.43;22.10;;;;;;;2.29;100.00;100002.16;4840729;29;20277;-59
2022/01/23 04:00:25;;;;;;;54.50;22.73;;;;;;;2.28;100.00;100014.50;4840798;29;20280;-60
2022/01/23 04:02:51;;;;;;;56.40;21.77;;;;;;;2.24;100.00;100015.69;4839509;29;20121;-59
2022/01/23 04:05:17;;;;;;;53.23;22.37;;;;;;;2.26;100.00;100020.84;4840704;29;20210;-59
2022/01/23 04:07:43;;;;;;;58.50;22.83;;;;;;;2.26;100.00;100012.94;4840560;29;20369;-59
2022/01/23 04:10:10;;;;;;;52.97;21.03;;;;;;;2.28;100.00;100016.31;4840677;29;20285;-59
2022/01/23 04:12:52;;;;;;;52.70;21.83;;;;;;;2.26;100.00;100016.44;4840468;29;20286;-59
2022/01/23 04:34:11;;;;;;;47.72;18.95;;;;;;;2.29;100.00;100020.63;4840561;29;19924;-59
2022/01/23 05:01:06;;;;;;;56.78;22.30;;;;;;;2.33;100.00;100043.13;4840126;29;20284;-59
2022/01/23 05:06:26;;;;;;;52.60;19.83;;;;;;;2.34;100.00;100039.53;4843647;29;20265;-59
2022/01/23 05:08:51;;;;;;;56.33;23.07;;;;;;;2.28;100.00;100032.97;4843535;29;20269;-59
2022/01/23 05:11:18;;;;;;;57.30;23.03;;;;;;;2.29;100.00;100037.28;4843363;29;20713;-58
2022/01/23 05:13:43;;;;;;;55.33;22.07;;;;;;;2.37;100.00;100041.94;4843550;29;20022;-59
2022/01/23 05:16:10;;;;;;;52.73;21.97;;;;;;;2.42;100.00;100047.69;4843484;29;20269;-59
2022/01/23 05:18:36;;;;;;;57.53;23.87;;;;;;;2.40;100.00;100042.53;4842210;29;20033;-58
2022/01/23 05:21:42;;;;;;;61.43;25.10;;;;;;;2.45;100.00;100050.06;4843375;29;20357;-59
2022/01/23 05:24:02;;;;;;;54.07;21.63;;;;;;;2.44;100.00;100040.47;4843160;29;20373;-59
2022/01/23 05:26:28;;;;;;;55.50;22.57;;;;;;;2.39;100.00;100050.56;4843562;29;20285;-59
2022/01/23 05:28:53;;;;;;;56.57;24.17;;;;;;;2.40;100.00;100060.16;4843275;29;20340;-59
2022/01/23 05:31:19;;;;;;;54.27;22.67;;;;;;;2.40;100.00;100068.91;4843344;29;20033;-59
2022/01/23 05:33:44;;;;;;;54.97;23.90;;;;;;;2.40;100.00;100074.19;4843477;29;20449;-57
2022/01/23 05:36:10;;;;;;;52.37;23.17;;;;;;;2.39;100.00;100074.31;4843159;29;20034;-60
2022/01/23 05:38:35;;;;;;;52.43;21.80;;;;;;;2.41;100.00;100078.50;4843249;29;20113;-59
2022/01/23 05:41:01;;;;;;;53.17;21.90;;;;;;;2.49;100.00;100081.38;4843202;29;20126;-59
2022/01/23 05:43:27;;;;;;;55.30;22.57;;;;;;;2.48;100.00;100089.41;4843106;29;20033;-58
2022/01/23 05:45:53;;;;;;;57.33;23.07;;;;;;;2.55;100.00;100080.03;4843087;29;20278;-58
2022/01/23 05:48:19;;;;;;;55.40;22.47;;;;;;;2.46;100.00;100088.69;4842952;29;20040;-59
2022/01/23 05:50:46;;;;;;;57.53;24.17;;;;;;;2.41;100.00;100082.94;4843110;29;20145;-58
2022/01/23 05:53:12;;;;;;;55.90;22.57;;;;;;;2.49;100.00;100073.47;4842836;29;20273;-59
2022/01/23 05:55:38;;;;;;;55.53;21.93;;;;;;;2.41;100.00;100086.44;4842889;29;20269;-58
2022/01/23 05:58:05;;;;;;;54.53;22.33;;;;;;;2.29;100.00;100090.03;4842463;29;20041;-59
2022/01/23 06:00:30;;;;;;;60.40;22.57;;;;;;;2.41;100.00;100088.22;4841616;29;20269;-58
2022/01/23 06:02:56;;;;;;;55.03;23.20;;;;;;;2.34;100.00;100097.56;4842614;29;20702;-58
2022/01/23 06:05:21;;;;;;;52.57;21.43;;;;;;;2.40;100.00;100081.28;4842662;29;20083;-58
2022/01/23 06:07:50;;;;;;;56.50;22.40;;;;;;;2.40;100.00;100090.03;4842488;29;20041;-58
2022/01/23 06:10:25;;;;;;;54.00;21.83;;;;;;;2.39;100.00;100092.78;4842807;29;20033;-59
2022/01/23 06:12:51;;;;;;;53.00;22.20;;;;;;;2.40;100.00;100097.94;4842304;29;20278;-59
2022/01/23 06:15:18;;;;;;;53.23;21.67;;;;;;;2.46;100.00;100105.34;4841375;29;20266;-59
2022/01/23 06:17:44;;;;;;;57.87;24.17;;;;;;;2.46;100.00;100102.72;4842403;29;20843;-59
2022/01/23 06:20:11;;;;;;;56.80;22.40;;;;;;;2.48;100.00;100099.97;4842369;29;20273;-59
2022/01/23 06:22:37;;;;;;;55.13;22.23;;;;;;;2.54;100.00;100112.66;4842418;29;20030;-58
2022/01/23 06:25:05;;;;;;;80.90;35.20;;;;;;;2.50;100.00;100120.00;4842503;29;20355;-59
2022/01/23 06:27:32;;;;;;;52.57;22.37;;;;;;;2.61;100.00;100115.66;4842268;29;20037;-59
2022/01/23 06:29:58;;;;;;;57.50;23.00;;;;;;;2.60;100.00;100122.72;4842418;29;20815;-59
2022/01/23 06:32:26;;;;;;;57.13;22.53;;;;;;;2.60;100.00;100133.28;4842210;29;20353;-59
2022/01/23 06:34:53;;;;;;;53.13;22.23;;;;;;;2.58;100.00;100137.00;4841078;29;20025;-60
2022/01/23 06:37:18;;;;;;;53.73;22.53;;;;;;;2.60;100.00;100138.56;4842240;29;20308;-59
2022/01/23 06:39:44;;;;;;;50.47;21.73;;;;;;;2.62;100.00;100144.56;4842242;29;20285;-59
2022/01/23 06:42:10;;;;;;;54.37;21.77;;;;;;;2.69;100.00;100135.19;4840708;29;20078;-59
2022/01/23 06:44:37;;;;;;;52.13;22.53;;;;;;;2.68;100.00;100137.94;4842020;29;20034;-59
2022/01/23 06:47:04;;;;;;;52.00;21.37;;;;;;;2.66;100.00;100132.78;4841933;29;22317;-58
2022/01/23 06:49:30;;;;;;;54.83;23.00;;;;;;;2.68;100.00;100143.22;4841954;29;20386;-59
2022/01/23 06:51:56;;;;;;;52.20;22.07;;;;;;;2.63;100.00;100153.31;4841751;29;20360;-59
2022/01/23 06:54:21;;;;;;;52.07;21.63;;;;;;;2.63;100.00;100162.06;4841835;29;20116;-59
2022/01/23 06:56:47;;;;;;;56.27;22.87;;;;;;;2.60;100.00;100169.38;4841754;29;20034;-59
2022/01/23 06:59:12;;;;;;;52.07;21.00;;;;;;;2.50;100.00;100175.38;4841685;29;20038;-59
2022/01/23 07:01:38;;;;;;;56.60;23.20;;;;;;;2.62;100.00;100176.22;4841484;29;20033;-59
2022/01/23 07:04:03;;;;;;;50.63;22.07;;;;;;;2.62;100.00;100178.88;4841446;29;20489;-59
2022/01/23 07:06:29;;;;;;;58.17;22.90;;;;;;;2.61;100.00;100184.25;4841558;29;20033;-59
2022/01/23 07:08:54;;;;;;;55.87;24.03;;;;;;;2.51;100.00;100184.16;4841410;29;20037;-59
2022/01/23 07:11:20;;;;;;;59.10;22.33;;;;;;;2.54;100.00;100187.38;4841438;29;20064;-59
2022/01/23 07:13:45;;;;;;;55.23;21.50;;;;;;;2.54;100.00;100184.72;4841530;29;20480;-58
2022/01/23 07:16:11;;;;;;;52.93;22.37;;;;;;;2.60;100.00;100193.97;4841526;29;20072;-58
2022/01/23 07:18:36;;;;;;;56.37;21.93;;;;;;;2.67;100.00;100205.72;4841457;29;20034;-59
2022/01/23 07:21:03;;;;;;;60.67;24.00;;;;;;;2.62;100.00;100204.41;4841671;29;20026;-61
2022/01/23 07:23:28;;;;;;;54.37;22.37;;;;;;;2.63;100.00;100216.66;4841323;29;20041;-61
2022/01/23 07:25:54;;;;;;;58.07;22.73;;;;;;;2.63;100.00;100214.84;4840995;29;20367;-59
2022/01/23 07:28:23;;;;;;;61.03;23.70;;;;;;;2.60;100.00;100215.09;4840960;29;20069;-60
2022/01/23 07:30:56;;;;;;;57.77;22.43;;;;;;;2.58;100.00;100208.25;4841298;29;20057;-62
2022/01/23 07:33:22;;;;;;;58.33;23.53;;;;;;;2.57;100.00;100220.59;4841276;29;20281;-60
2022/01/23 07:35:48;;;;;;;59.13;23.87;;;;;;;2.64;100.00;100211.25;4841176;29;20325;-60
2022/01/23 07:38:17;;;;;;;58.57;23.93;;;;;;;2.68;100.00;100215.31;4841009;29;20396;-60
2022/01/23 07:40:50;;;;;;;59.77;23.73;;;;;;;2.60;100.00;100208.97;4840823;29;20321;-61
2022/01/23 07:43:16;;;;;;;58.28;24.08;;;;;;;2.57;100.00;100225.88;4839796;29;20349;-61
2022/01/23 07:45:43;;;;;;;62.03;24.37;;;;;;;2.57;100.00;100225.03;4839696;29;20489;-59
2022/01/23 07:48:09;;;;;;;58.17;22.77;;;;;;;2.66;100.00;100222.50;4840976;29;20498;-61
2022/01/23 07:50:36;;;;;;;59.63;24.00;;;;;;;2.53;100.00;100227.09;4839836;29;20274;-60
2022/01/23 07:53:02;;;;;;;60.93;24.50;;;;;;;2.69;100.00;100232.84;4840752;29;20265;-59
2022/01/23 07:55:28;;;;;;;57.57;24.23;;;;;;;2.66;100.00;100219.88;4840818;29;20779;-60
2022/01/23 07:57:58;;;;;;;58.37;23.63;;;;;;;2.56;100.00;100232.09;4840785;29;20277;-60
2022/01/23 08:00:24;;;;;;;63.33;24.23;;;;;;;2.70;100.00;100225.75;4840760;29;20302;-60
2022/01/23 08:02:50;;;;;;;64.37;25.60;;;;;;;2.62;100.00;100223.72;4840560;29;20707;-59
2022/01/23 08:05:15;;;;;;;58.60;23.67;;;;;;;2.59;100.00;100226.59;4840559;29;20579;-59
2022/01/23 08:07:41;;;;;;;60.73;23.03;;;;;;;2.68;100.00;100217.94;4840601;29;20523;-59
2022/01/23 08:10:08;;;;;;;61.37;24.13;;;;;;;2.79;100.00;100222.38;4840361;29;20032;-59
2022/01/23 08:12:35;;;;;;;55.63;22.27;;;;;;;2.67;100.00;100218.91;4840063;29;20074;-60
2022/01/23 08:15:02;;;;;;;53.07;21.73;;;;;;;2.70;100.00;100221.31;4840557;29;20285;-61
2022/01/23 08:17:27;;;;;;;58.43;22.73;;;;;;;2.67;100.00;100223.34;4840590;29;20806;-60
2022/01/23 08:19:55;;;;;;;54.83;22.10;;;;;;;2.69;100.00;100229.34;4840572;29;20308;-61
2022/01/23 08:22:22;;;;;;;57.27;22.03;;;;;;;2.69;100.00;100235.47;4840199;29;20089;-61
2022/01/23 08:24:49;;;;;;;57.40;22.87;;;;;;;2.54;100.00;100219.03;4839937;29;20946;-61
2022/01/23 08:27:15;;;;;;;58.17;22.67;;;;;;;2.65;100.00;100209.47;4838322;29;20273;-61
2022/01/23 08:29:41;;;;;;;59.10;24.40;;;;;;;2.69;100.00;100222.28;4839246;29;20277;-61
2022/01/23 08:32:08;;;;;;;52.57;22.03;;;;;;;2.62;100.00;100217.59;4840310;29;20280;-61
2022/01/23 08:34:35;;;;;;;60.80;23.17;;;;;;;2.61;100.00;100227.31;4840593;29;20034;-61
2022/01/23 08:37:02;;;;;;;59.43;23.53;;;;;;;2.67;100.00;100218.06;4840354;29;20281;-61
2022/01/23 08:39:30;;;;;;;61.23;22.87;;;;;;;2.86;100.00;100219.16;4842345;29;20273;-60
2022/01/23 08:41:56;;;;;;;58.70;23.60;;;;;;;2.72;100.00;100215.94;4844326;29;20364;-60
2022/01/23 08:44:24;;;;;;;60.00;23.17;;;;;;;2.88;100.00;100209.31;4843852;29;20381;-61
2022/01/23 08:46:51;;;;;;;58.60;23.23;;;;;;;2.74;100.00;100235.13;4843989;29;20034;-60
2022/01/23 08:49:18;;;;;;;57.30;23.63;;;;;;;2.94;100.00;100241.47;4843901;29;20624;-60
2022/01/23 08:51:45;;;;;;;61.73;23.80;;;;;;;2.76;100.00;100225.28;4843764;29;20273;-60
2022/01/23 08:54:11;;;;;;;62.40;23.77;;;;;;;2.84;100.00;100226.38;4843797;29;20743;-61
2022/01/23 08:56:36;;;;;;;60.30;24.97;;;;;;;2.76;100.00;100233.22;4843542;29;20269;-60
2022/01/23 08:59:03;;;;;;;58.70;24.47;;;;;;;2.77;100.00;100229.63;4843533;29;20033;-60
2022/01/23 09:01:29;;;;;;;59.80;25.07;;;;;;;2.79;100.00;100220.59;4843555;29;20037;-61
2022/01/23 09:03:54;;;;;;;63.67;26.53;;;;;;;2.66;100.00;100225.16;4843301;29;20309;-61
2022/01/23 09:06:20;;;;;;;61.77;24.47;;;;;;;2.87;100.00;100227.94;4843435;29;20827;-61
2022/01/23 09:08:46;;;;;;;56.50;22.60;;;;;;;2.95;100.00;100240.50;4843344;29;20108;-61
2022/01/23 09:11:38;;;;;;;58.90;22.67;;;;;;;2.70;100.00;100237.16;4843111;29;20376;-61
2022/01/23 09:16:42;;;;;;;63.07;24.60;;;;;;;2.80;100.00;100250.47;4843418;29;20380;-61
2022/01/23 09:19:09;;;;;;;60.70;24.70;;;;;;;2.83;100.00;100250.22;4843043;29;20297;-60
2022/01/23 09:21:36;;;;;;;62.47;24.17;;;;;;;2.91;100.00;100255.75;4843157;29;20274;-61
2022/01/23 09:24:03;;;;;;;61.07;25.47;;;;;;;2.78;100.00;100247.94;4842956;29;20376;-61
2022/01/23 09:26:29;;;;;;;61.17;23.73;;;;;;;2.88;100.00;100240.97;4843122;29;20627;-60
2022/01/23 09:28:57;;;;;;;64.60;24.50;;;;;;;2.97;100.00;100243.88;4843277;29;20273;-61
2022/01/23 09:31:25;;;;;;;60.07;23.70;;;;;;;3.05;100.00;100244.94;4843016;29;20060;-60
2022/01/23 09:33:51;;;;;;;56.80;23.37;;;;;;;3.08;100.00;100238.59;4843106;29;20266;-60
2022/01/23 09:36:17;;;;;;;56.30;23.57;;;;;;;3.11;100.00;100248.91;4842880;29;20262;-61
2022/01/23 09:38:42;;;;;;;56.57;23.17;;;;;;;2.99;100.00;100248.09;4842869;29;20038;-60
2022/01/23 09:41:09;;;;;;;59.37;23.53;;;;;;;3.07;100.00;100255.38;4842847;29;20057;-61
2022/01/23 09:43:39;;;;;;;53.47;22.73;;;;;;;2.97;100.00;100251.78;4842826;29;20432;-61
2022/01/23 09:46:08;;;;;;;54.23;23.10;;;;;;;3.18;100.00;100255.38;4842850;29;20894;-61
2022/01/23 09:48:35;;;;;;;53.20;22.67;;;;;;;3.14;100.00;100257.41;4842744;29;20265;-60
2022/01/23 09:51:02;;;;;;;57.93;23.27;;;;;;;3.26;100.00;100253.78;4842317;29;20767;-61
2022/01/23 09:53:28;;;;;;;54.90;23.40;;;;;;;3.49;100.00;100261.66;4842872;29;20693;-61
2022/01/23 09:55:58;;;;;;;52.40;22.10;;;;;;;3.42;100.00;100263.13;4842608;29;20364;-61
2022/01/23 09:58:25;;;;;;;50.70;21.97;;;;;;;3.26;100.00;100266.16;4841784;29;20344;-61
2022/01/23 10:00:51;;;;;;;50.43;21.70;;;;;;;3.18;100.00;100269.41;4842560;29;20265;-61
2022/01/23 10:03:19;;;;;;;49.20;20.73;;;;;;;3.21;100.00;100276.28;4841437;29;20290;-60
2022/01/23 10:05:49;;;;;;;49.20;21.43;;;;;;;3.25;100.00;100267.13;4842596;29;20037;-61
2022/01/23 10:08:16;;;;;;;52.47;21.30;;;;;;;3.48;100.00;100278.47;4842834;29;20269;-60
2022/01/23 10:10:42;;;;;;;49.57;21.07;;;;;;;3.45;100.00;100274.31;4842377;29;20296;-61
2022/01/23 10:13:09;;;;;;;48.13;22.30;;;;;;;3.21;100.00;100273.63;4842546;29;20269;-60
2022/01/23 10:15:35;;;;;;;47.27;20.80;;;;;;;3.23;100.00;100269.06;4842686;29;20118;-61
2022/01/23 10:18:01;;;;;;;45.70;21.03;;;;;;;3.45;100.00;100282.25;4842443;29;20309;-61
2022/01/23 10:20:27;;;;;;;46.37;20.30;;;;;;;3.54;100.00;100267.44;4842271;29;20089;-61
2022/01/23 10:22:54;;;;;;;46.77;20.40;;;;;;;3.54;100.00;100268.28;4842242;29;20289;-60
2022/01/23 10:25:33;;;;;;;49.83;20.40;;;;;;;3.68;100.00;100261.88;4842152;29;20034;-60
2022/01/23 10:28:07;;;;;;;43.50;19.47;;;;;;;3.58;100.00;100271.50;4842207;29;20752;-60
2022/01/23 10:30:42;;;;;;;42.85;19.20;;;;;;;3.47;100.00;100267.06;4842211;29;20274;-60
2022/01/23 10:33:10;;;;;;;44.50;18.67;;;;;;;3.62;100.00;100268.47;4842123;29;20029;-61
2022/01/23 10:35:56;;;;;;;41.00;19.10;;;;;;;3.56;100.00;100278.72;4842069;29;20280;-61
2022/01/23 10:38:24;;;;;;;42.63;19.07;;;;;;;3.91;100.00;100268.75;4842180;29;20253;-61
2022/01/23 10:41:01;;;;;;;40.60;18.53;;;;;;;3.99;100.00;100268.13;4841755;29;20692;-61
2022/01/23 10:48:55;;;;;;;39.27;18.27;;;;;;;3.89;100.00;100256.63;4841875;29;19968;-61
2022/01/23 10:51:24;;;;;;;40.27;18.93;;;;;;;3.71;100.00;100258.13;4841679;29;20274;-61
2022/01/23 10:54:01;;;;;;;44.00;19.70;;;;;;;3.76;100.00;100258.59;4841678;29;20404;-61
2022/01/23 10:56:29;;;;;;;42.67;20.03;;;;;;;3.87;100.00;100267.31;4841653;29;20336;-60
2022/01/23 10:59:09;;;;;;;43.07;20.17;;;;;;;3.77;100.00;100255.81;4841726;29;20276;-61
2022/01/23 11:01:36;;;;;;;41.40;19.73;;;;;;;3.80;100.00;100255.59;4840585;29;20306;-61
2022/01/23 11:04:13;;;;;;;38.77;18.57;;;;;;;3.81;100.00;100256.41;4841389;29;20755;-61
2022/01/23 11:07:02;;;;;;;36.30;17.30;;;;;;;3.84;100.00;100248.22;4841259;29;20807;-61
2022/01/23 11:09:37;;;;;;;37.47;17.27;;;;;;;3.80;100.00;100260.03;4841286;29;20276;-61
2022/01/23 11:12:14;;;;;;;35.63;16.17;;;;;;;3.93;100.00;100268.59;4841150;29;20297;-61
2022/01/23 11:17:26;;;;;;;33.20;16.47;;;;;;;4.07;100.00;100267.47;4841233;29;20864;-61
2022/01/23 11:19:57;;;;;;;34.67;16.27;;;;;;;4.06;100.00;100271.91;4841101;29;20270;-61
2022/01/23 11:22:29;;;;;;;38.73;17.57;;;;;;;4.23;100.00;100278.47;4841138;29;20265;-60
2022/01/23 11:25:04;;;;;;;34.87;16.40;;;;;;;4.17;100.00;100257.78;4841103;29;20750;-61
2022/01/23 11:27:34;;;;;;;38.50;17.63;;;;;;;4.06;100.00;100269.28;4841286;29;20280;-61
2022/01/23 11:30:12;;;;;;;34.83;16.63;;;;;;;4.21;100.00;100265.38;4840946;29;20321;-62
2022/01/23 11:32:41;;;;;;;34.97;17.27;;;;;;;4.36;100.00;100269.38;4840957;29;20277;-61
2022/01/23 11:35:13;;;;;;;35.63;17.40;;;;;;;4.30;100.00;100261.94;4840897;29;20361;-61
2022/01/23 11:37:48;;;;;;;33.83;17.27;;;;;;;4.32;100.00;100265.31;4840731;29;20270;-61
2022/01/23 11:40:40;;;;;;;35.03;17.43;;;;;;;4.31;100.00;100260.97;4840814;29;20323;-61
2022/01/23 11:54:03;;;;;;;35.10;17.93;;;;;;;4.42;100.00;100254.78;4841184;29;20301;-61
2022/01/23 11:56:40;;;;;;;33.73;16.77;;;;;;;4.33;100.00;100255.56;4840683;29;20446;-61
2022/01/23 11:59:28;;;;;;;35.63;18.30;;;;;;;4.32;100.00;100254.72;4840891;29;20829;-61
2022/01/23 12:02:13;;;;;;;35.43;17.50;;;;;;;4.33;100.00;100251.09;4840694;29;20257;-61
2022/01/23 12:04:40;;;;;;;33.83;17.67;;;;;;;4.09;100.00;100239.09;4840602;29;20289;-61
2022/01/23 12:07:09;;;;;;;33.33;16.27;;;;;;;4.21;100.00;100236.25;4840673;29;20265;-61
2022/01/23 12:09:34;;;;;;;32.40;16.60;;;;;;;4.35;100.00;100232.44;4840619;29;20273;-61
2022/01/23 12:13:03;;;;;;;37.13;18.13;;;;;;;4.27;100.00;100229.59;4840277;29;20349;-61
2022/01/23 12:18:20;;;;;;;34.50;16.37;;;;;;;4.24;100.00;100232.53;4840268;29;20082;-61
2022/01/23 12:20:48;;;;;;;29.97;15.97;;;;;;;4.29;100.00;100227.66;4840405;29;20680;-61
2022/01/23 12:23:17;;;;;;;30.50;16.10;;;;;;;4.35;100.00;100221.88;4840366;29;20281;-61
2022/01/23 12:25:45;;;;;;;23.10;12.27;;;;;;;4.49;100.00;100221.53;4840293;29;20767;-61
2022/01/23 12:28:21;;;;;;;22.47;12.60;;;;;;;4.41;100.00;100223.97;4840264;29;20273;-61
2022/01/23 12:30:50;;;;;;;26.00;12.47;;;;;;;4.45;100.00;100225.41;4839214;29;20276;-61
2022/01/23 12:33:26;;;;;;;21.03;11.33;;;;;;;4.66;100.00;100228.00;4840274;29;20740;-61
2022/01/23 12:35:56;;;;;;;26.27;13.47;;;;;;;4.63;100.00;100222.97;4840225;29;20265;-61
2022/01/23 12:38:37;;;;;;;26.80;13.20;;;;;;;4.56;100.00;100216.53;4840176;29;20711;-61
2022/01/23 12:41:24;;;;;;;22.50;12.33;;;;;;;4.56;100.00;100211.25;4840305;29;20297;-61
2022/01/23 12:44:00;;;;;;;25.93;13.83;;;;;;;4.66;100.00;100214.78;4840084;29;20285;-61
2022/01/23 12:46:29;;;;;;;28.83;15.07;;;;;;;4.68;100.00;100215.50;4838998;29;20273;-61
2022/01/23 12:48:56;;;;;;;24.53;13.47;;;;;;;4.85;100.00;100214.00;4840189;29;20280;-61
2022/01/23 12:51:21;;;;;;;21.37;11.90;;;;;;;4.83;100.00;100218.63;4840367;29;20281;-61
2022/01/23 12:53:46;;;;;;;18.73;10.77;;;;;;;4.97;100.00;100218.22;4840183;29;20401;-61
2022/01/23 12:56:15;;;;;;;21.27;11.10;;;;;;;5.10;100.00;100214.38;4840165;29;20041;-61
2022/01/23 12:58:42;;;;;;;21.43;11.87;;;;;;;4.90;100.00;100217.09;4840055;29;20503;-61
2022/01/23 13:01:16;;;;;;;27.33;15.23;;;;;;;4.94;100.00;100218.53;4840255;29;20281;-61
2022/01/23 13:03:44;;;;;;;19.90;11.13;;;;;;;4.79;100.00;100217.22;4840062;29;20300;-61
2022/01/23 13:06:11;;;;;;;20.93;11.47;;;;;;;4.69;100.00;100215.38;4838974;29;20783;-61
2022/01/23 13:08:47;;;;;;;30.80;16.67;;;;;;;4.70;100.00;100213.56;4839935;29;20269;-61
2022/01/23 13:14:00;;;;;;;25.88;13.68;;;;;;;4.77;100.00;100212.03;4840057;29;20302;-61
2022/01/23 13:16:39;;;;;;;27.07;14.63;;;;;;;4.87;100.00;100212.06;4839893;29;20037;-60
2022/01/23 13:19:44;;;;;;;27.37;14.73;;;;;;;4.65;100.00;100210.44;4840153;29;20271;-61
2022/01/23 13:30:19;;;;;;;45.47;22.97;;;;;;;4.38;100.00;100218.97;4843640;29;20046;-61
2022/01/23 13:32:51;;;;;;;51.53;23.97;;;;;;;4.53;100.00;100215.00;4843269;29;20030;-61
2022/01/23 13:35:19;;;;;;;58.47;29.37;;;;;;;4.42;100.00;100212.44;4843046;29;20281;-61
2022/01/23 13:37:47;;;;;;;42.63;24.57;;;;;;;4.41;100.00;100216.03;4843151;29;20316;-61
2022/01/23 13:40:15;;;;;;;29.50;16.37;;;;;;;4.28;100.00;100213.59;4843158;29;20705;-61
2022/01/23 13:42:52;;;;;;;28.93;15.73;;;;;;;4.20;100.00;100216.06;4842976;29;20766;-61
2022/01/23 13:59:34;;;;;;;28.63;15.53;;;;;;;4.34;100.00;100199.88;4842821;29;20360;-61
2022/01/23 14:02:22;;;;;;;32.67;17.57;;;;;;;4.27;100.00;100198.69;4842613;29;20273;-61
2022/01/23 14:04:56;;;;;;;28.80;15.87;;;;;;;4.26;100.00;100197.03;4842631;29;20285;-61
2022/01/23 14:07:27;;;;;;;28.80;15.55;;;;;;;4.15;100.00;100199.75;4842416;29;20265;-61
2022/01/23 14:09:56;;;;;;;31.47;16.00;;;;;;;4.12;100.00;100204.47;4842515;29;20038;-61
2022/01/23 14:12:24;;;;;;;30.17;16.27;;;;;;;4.03;100.00;100195.50;4842198;29;20301;-61
2022/01/23 14:14:53;;;;;;;31.60;16.67;;;;;;;4.06;100.00;100197.88;4842343;29;20269;-61
2022/01/23 14:17:20;;;;;;;32.90;16.63;;;;;;;3.96;100.00;100204.91;4842178;29;20774;-60
2022/01/23 14:20:00;;;;;;;32.07;16.50;;;;;;;4.02;100.00;100207.03;4842512;29;20261;-61
2022/01/23 14:22:32;;;;;;;30.53;16.10;;;;;;;4.11;100.00;100200.97;4842159;29;20281;-61
2022/01/23 14:25:21;;;;;;;31.40;15.40;;;;;;;4.11;100.00;100194.84;4842172;29;20277;-61
2022/01/23 14:28:03;;;;;;;30.77;16.07;;;;;;;4.08;100.00;100200.38;4842075;29;20627;-61
2022/01/23 14:30:30;;;;;;;29.57;15.77;;;;;;;4.11;100.00;100203.63;4842000;29;20302;-61
2022/01/23 14:33:05;;;;;;;28.67;15.53;;;;;;;4.05;100.00;100208.56;4842143;29;20356;-61
2022/01/23 14:35:33;;;;;;;30.50;15.70;;;;;;;3.95;100.00;100198.75;4842111;29;20265;-61